Weather observations for the past three days for
Winchester Municipal Airport
Imperial (Metric)
Date Time (cdt) Wind (mph) Vis. (mi.) Weather Sky Cond. Temperature (ºF) Relative Humidity Wind Chill (°F) Heat Index (°F) Pressure Precipitation (in)
Air Dwpt 6 hour altimeter (in) sea level (mb) 1 hr 3 hr 6 hr
Max. Min.
03 23:50 SE 7 10.00 Fair CLR 51.8 41 67% 30.04 0.0
03 23:30 SE 5 10.00 Fair CLR 50 42.8 76% 49 30.05 0.0
03 23:15 SE 6 10.00 Fair CLR 51.8 41 67% 30.05 0.0
03 22:50 SE 5 10.00 Fair CLR 50 42.8 76% 49 30.05 0.0
03 22:35 Calm 10.00 Fair CLR 51.8 42.8 72% 30.05 0.0
03 22:15 Calm 10.00 Fair CLR 50 42.8 76% 30.05 0.0
03 21:55 Calm 10.00 Fair CLR 50 42.8 76% 30.05 0.0
03 21:35 Calm 10.00 Fair CLR 51.8 42.8 72% 30.06 0.0
03 21:15 S 7 10.00 Fair CLR 53.6 42.8 67% 30.05 0.0
03 20:55 S 6 10.00 Fair CLR 53.6 44.6 72% 30.04 0.0
03 20:35 S 7 10.00 Fair CLR 55.4 42.8 63% 30.04 0.0
03 20:15 S 6 10.00 Fair CLR 55.4 42.8 63% 30.04 0.0
03 19:55 Calm 10.00 Fair CLR 59 42.8 55% 30.03 0.0
03 19:35 SW 5 10.00 Fair CLR 60.8 41 48% 30.03 0.0
03 19:15 SW 6 10.00 Fair CLR 62.6 39.2 42% 30.02 0.0
03 18:55 SW 7 10.00 Fair CLR 64.4 39.2 40% 30.03 0.0
03 18:35 Calm 10.00 Fair CLR 64.4 35.6 34% 30.04 0.0
03 18:15 W 6 10.00 Fair CLR 66.2 35.6 32% 30.04 0.0
03 17:55 SW 7 10.00 Fair CLR 66.2 39.2 37% 30.05 0.0
03 17:35 W 6 10.00 Fair CLR 66.2 39.2 37% 30.05 0.0
03 17:15 Vrbl 7 10.00 Fair CLR 66.2 39.2 37% 30.05 0.0
03 16:55 SW 8 10.00 Fair CLR 66.2 37.4 35% 30.05 0.0
03 16:35 SW 12 10.00 Fair CLR 66.2 39.2 37% 30.05 0.0
03 16:15 SW 10 10.00 Fair CLR 66.2 37.4 35% 30.06 0.0
03 15:55 Vrbl 5 10.00 Fair CLR 66.2 37.4 35% 30.07 0.0
03 15:35 W 6 G 13 10.00 Fair CLR 66.2 37.4 35% 30.08 0.0
03 15:15 Vrbl 6 G 14 10.00 Fair CLR 66.2 37.4 35% 30.09 0.0
03 14:55 NW 6 10.00 Fair CLR 64.4 37.4 37% 30.1 0.0
03 14:35 W 8 10.00 Fair CLR 64.4 37.4 37% 30.11 0.0
03 14:15 Vrbl 6 10.00 Fair CLR 64.4 35.6 34% 30.12 0.0
03 13:55 Vrbl 5 10.00 Fair CLR 64.4 39.2 40% 30.13 0.0
03 13:35 Calm 10.00 Fair CLR 62.6 37.4 39% 30.13 0.0
03 13:15 Calm 10.00 Fair CLR 62.6 37.4 39% 30.14 0.0
03 12:55 SW 9 10.00 Fair CLR 62.6 37.4 39% 30.14 0.0
03 12:35 Calm 10.00 Fair CLR 60.8 37.4 42% 30.15 0.0
03 12:15 SW 6 10.00 Fair CLR 60.8 37.4 42% 30.16 0.0
03 11:55 Calm 10.00 Fair CLR 59 35.6 42% 30.17 0.0
03 11:35 NE 6 10.00 Fair CLR 59 37.4 45% 30.17 0.0
03 11:15 Calm 10.00 Fair CLR 59 37.4 45% 30.18 0.0
03 10:55 Calm 10.00 Fair CLR 57.2 37.4 48% 30.18 0.0
03 10:35 Vrbl 5 10.00 Fair CLR 57.2 37.4 48% 30.19 0.0
03 10:10 Calm 10.00 Fair CLR 55.4 39.2 55% 30.18 0.0
03 09:55 Calm 10.00 Fair CLR 55.4 39.2 55% 30.18 0.0
03 09:35 Vrbl 5 10.00 Fair CLR 55.4 42.8 63% 30.18 0.0
03 09:15 N 3 10.00 Fair CLR 53.6 46.4 77% 30.18 0.0
03 08:55 Calm 10.00 Fair CLR 51.8 48.2 88% 30.18 0.0
03 08:35 Calm 10.00 A Few Clouds FEW008 50 48.2 94% 30.18 0.0
03 08:15 Calm 10.00 Partly Cloudy SCT008 48.2 48.2 100% 30.18 0.0
03 07:55 Calm 10.00 Fair CLR 46.4 46.4 100% 30.18 0.0
03 07:35 Calm 9.00 Fair CLR 44.6 44.6 100% 30.17 0.0
03 07:15 Calm 7.00 Fair CLR 42.8 42.8 100% 30.17 0.0
03 06:55 Calm 7.00 Fair CLR 41 41 100% 30.17 0.0
03 06:35 Calm 7.00 Fair CLR 39.2 39.2 100% 30.16 0.0
03 06:15 Calm 0.50 Fog/Mist VV005 39.2 39.2 100% 30.15 0.0
03 05:55 Calm 1.75 Fog/Mist CLR 39.2 39.2 100% 30.15 0.0
03 05:35 E 3 0.75 Fog/Mist VV005 39.2 39.2 100% 30.15 0.0
03 05:15 Calm 10.00 Fair CLR 39.2 39.2 100% 30.14 0.0
03 04:55 Calm 9.00 Fair CLR 41 41 100% 30.14 0.0
03 04:35 Calm 10.00 Fair CLR 41 41 100% 30.14 0.0
03 04:15 Calm 10.00 Fair CLR 41 41 100% 30.13 0.0
03 03:55 Calm 10.00 A Few Clouds FEW042 41 41 100% 30.13 0.0
03 03:35 Calm 10.00 A Few Clouds FEW041 41 41 100% 30.13 0.0
03 03:15 Calm 10.00 Fair CLR 41 41 100% 30.12 0.0
03 02:55 Calm 2.00 Fog/Mist CLR 41 41 100% 30.12 0.0
03 02:35 Calm 8.00 Fair CLR 42.8 42.8 100% 30.12 0.0
03 02:15 Calm 10.00 Fair CLR 42.8 42.8 100% 30.11 0.0
03 01:55 Calm 10.00 Fair CLR 42.8 42.8 100% 30.11 0.0
03 01:35 Calm 10.00 Fair CLR 44.6 44.6 100% 30.11 0.0
03 01:15 Calm 10.00 Fair CLR 44.6 44.6 100% 30.11 0.0
03 00:55 S 3 10.00 Fair CLR 44.6 44.6 100% 30.11 0.0
03 00:35 Calm 10.00 Fair CLR 46.4 44.6 93% 30.11 0.0
03 00:15 Calm 10.00 Fair CLR 46.4 44.6 93% 30.1 0.0
02 23:55 Calm 10.00 Fair CLR 48.2 44.6 87% 30.1 0.0
02 23:35 NW 5 10.00 Fair CLR 48.2 44.6 87% 47 30.1 0.0
02 23:15 Calm 10.00 A Few Clouds FEW060 48.2 44.6 87% 30.09 0.0
02 22:55 Calm 10.00 Fair CLR 50 42.8 76% 30.09 0.0
02 22:35 NW 3 10.00 Fair CLR 50 42.8 76% 30.09 0.0
02 22:15 Calm 10.00 Fair CLR 51.8 42.8 72% 30.09 0.0
02 21:55 Calm 10.00 A Few Clouds FEW095 51.8 42.8 72% 30.08 0.0
02 21:35 N 6 10.00 Mostly Cloudy SCT065 BKN090 51.8 42.8 72% 30.07 0.0
02 21:15 N 8 10.00 Overcast BKN065 OVC075 53.6 42.8 67% 30.07 0.0
02 20:55 N 7 10.00 Mostly Cloudy SCT060 BKN070 BKN100 53.6 42.8 67% 30.06 0.0
02 20:35 N 10 10.00 A Few Clouds FEW060 FEW110 53.6 42.8 67% 30.05 0.0
02 20:15 N 6 10.00 Partly Cloudy SCT100 55.4 41 59% 30.04 0.0
02 19:55 N 7 10.00 Overcast SCT080 OVC100 55.4 41 59% 30.03 0.0
02 19:35 N 7 10.00 Overcast BKN085 OVC100 57.2 41 55% 30.02 0.0
02 19:15 N 7 10.00 Overcast FEW075 OVC100 57.2 41 55% 30.02 0.0
02 18:55 N 7 G 13 10.00 Partly Cloudy SCT100 SCT120 59 39.2 48% 30.01 0.0
02 18:35 N 7 G 14 10.00 Partly Cloudy FEW048 FEW055 SCT120 59 39.2 48% 30 0.0
02 18:15 W 9 G 17 10.00 Mostly Cloudy FEW037 SCT060 BKN075 59 37.4 45% 30.01 0.0
02 17:55 NW 12 G 20 10.00 Mostly Cloudy BKN075 BKN100 BKN120 62.6 33.8 34% 29.99 0.0
02 17:35 Vrbl 6 G 13 10.00 Partly Cloudy FEW080 SCT110 62.6 33.8 34% 29.98 0.0
02 17:15 N 10 G 17 10.00 Fair CLR 64.4 33.8 32% 29.98 0.0
02 16:55 N 10 G 18 10.00 A Few Clouds FEW095 64.4 33.8 32% 29.97 0.0
02 16:35 NW 7 G 17 10.00 Mostly Cloudy FEW075 BKN100 64.4 33.8 32% 29.97 0.0
02 16:15 N 12 G 20 10.00 Mostly Cloudy BKN075 BKN090 BKN110 64.4 33.8 32% 29.97 0.0
02 15:55 NW 8 G 16 10.00 Partly Cloudy SCT080 SCT090 SCT110 66.2 33.8 30% 29.97 0.0
02 15:35 NW 9 G 17 10.00 Fair CLR 64.4 32 30% 29.98 0.0
02 15:15 NW 10 G 20 10.00 A Few Clouds FEW090 66.2 32 28% 29.98 0.0
02 14:55 Vrbl 6 G 18 10.00 Partly Cloudy FEW080 SCT090 64.4 32 30% 29.99 0.0
02 14:35 N 13 10.00 Mostly Cloudy BKN080 BKN090 64.4 33.8 32% 29.99 0.0
02 14:15 NW 7 G 16 10.00 Partly Cloudy SCT075 SCT090 64.4 32 30% 30 0.0
02 13:55 NW 12 G 24 10.00 A Few Clouds FEW075 64.4 32 30% 30 0.0
02 13:35 NE 9 G 17 10.00 Partly Cloudy SCT075 62.6 32 32% 30 0.0
02 13:15 NW 9 G 17 10.00 A Few Clouds FEW075 64.4 32 30% 30 0.0
02 12:55 N 5 G 18 10.00 Fair CLR 64.4 33.8 32% 30 0.0
02 12:35 N 10 G 18 10.00 Fair CLR 62.6 33.8 34% 30.01 0.0
02 12:15 NE 9 10.00 Fair CLR 62.6 33.8 34% 30.02 0.0
02 11:55 N 14 10.00 Fair CLR 62.6 32 32% 30.02 0.0
02 11:35 N 13 10.00 Fair CLR 60.8 33.8 36% 30.03 0.0
02 11:15 NE 13 G 20 10.00 Fair CLR 60.8 33.8 36% 30.03 0.0
02 10:55 N 15 10.00 Fair CLR 59 33.8 39% 30.03 0.0
02 10:35 N 13 10.00 Fair CLR 59 33.8 39% 30.03 0.0
02 10:15 NE 12 G 18 10.00 Fair CLR 59 33.8 39% 30.02 0.0
02 09:55 N 8 G 17 10.00 Fair CLR 59 35.6 42% 30.02 0.0
02 09:35 N 12 G 21 10.00 Fair CLR 57.2 35.6 44% 30.01 0.0
02 09:15 N 13 10.00 Fair CLR 57.2 37.4 48% 30.01 0.0
02 08:55 NE 12 10.00 Fair CLR 55.4 39.2 55% 30.01 0.0
02 08:35 NE 8 10.00 Fair CLR 55.4 39.2 55% 30.01 0.0
02 08:15 N 9 10.00 Fair CLR 53.6 39.2 58% 30.01 0.0
02 07:55 N 6 10.00 Fair CLR 51.8 39.2 62% 30.01 0.0
02 07:35 N 8 10.00 Fair CLR 50 39.2 67% 47 30 0.0
02 07:15 NE 6 10.00 Fair CLR 48.2 41 76% 46 30 0.0
02 06:55 N 6 10.00 Fair CLR 48.2 39.2 71% 46 30 0.0
02 06:35 N 6 10.00 Fair CLR 48.2 39.2 71% 46 29.99 0.0
02 06:15 N 6 10.00 Fair CLR 48.2 39.2 71% 46 29.98 0.0
02 05:55 N 6 10.00 Fair CLR 48.2 39.2 71% 46 29.98 0.0
02 05:35 N 6 10.00 Fair CLR 48.2 39.2 71% 46 29.97 0.0
02 05:15 N 3 10.00 Fair CLR 50 37.4 62% 29.96 0.0
02 04:55 N 3 10.00 Fair CLR 50 37.4 62% 29.97 0.0
02 04:35 Calm 10.00 Fair CLR 50 39.2 67% 29.98 0.0
02 04:15 Calm 10.00 Fair CLR 50 37.4 62% 29.97 0.0
02 03:55 NE 5 10.00 Fair CLR 50 37.4 62% 49 29.97 0.0
02 03:35 NE 5 10.00 Fair CLR 50 37.4 62% 49 29.97 0.0
02 03:15 N 6 10.00 A Few Clouds FEW049 51.8 35.6 54% 29.96 0.0
02 02:55 N 7 10.00 Fair CLR 51.8 35.6 54% 29.97 0.0
02 02:35 N 9 10.00 A Few Clouds FEW050 51.8 35.6 54% 29.97 0.0
02 02:15 N 12 10.00 Mostly Cloudy BKN050 53.6 35.6 51% 29.99 0.0
02 01:55 N 10 10.00 Overcast OVC050 53.6 35.6 51% 29.99 0.0
02 01:35 N 9 10.00 Overcast OVC050 53.6 35.6 51% 30.01 0.0
02 01:15 N 7 10.00 Overcast OVC050 53.6 35.6 51% 30 0.0
02 00:55 N 7 10.00 Overcast OVC055 53.6 35.6 51% 30 0.0
02 00:35 N 7 10.00 Overcast OVC055 53.6 33.8 47% 30 0.0
02 00:15 N 7 10.00 Overcast OVC050 55.4 33.8 44% 30 0.0
01 23:55 N 5 10.00 Overcast OVC050 55.4 33.8 44% 29.99 0.0
01 23:35 N 8 10.00 Overcast BKN050 OVC055 55.4 33.8 44% 29.99 0.0
01 23:15 N 8 10.00 Overcast OVC050 55.4 33.8 44% 29.99 0.0
01 22:55 N 5 10.00 Overcast OVC050 55.4 33.8 44% 30 0.0
01 22:35 N 7 10.00 Overcast BKN050 OVC055 57.2 33.8 41% 30 0.0
01 22:15 N 7 10.00 Overcast OVC050 57.2 33.8 41% 30 0.0
01 21:55 N 7 G 14 10.00 Overcast OVC050 57.2 35.6 44% 30 0.0
01 21:35 N 9 10.00 Overcast OVC050 57.2 37.4 48% 29.99 0.0
01 21:15 N 9 10.00 Overcast OVC050 59 35.6 42% 29.99 0.0
01 20:55 N 13 10.00 Overcast OVC048 59 39.2 48% 29.98 0.0
01 20:35 N 7 10.00 Overcast OVC048 59 42.8 55% 29.98 0.0
01 20:15 N 8 10.00 Mostly Cloudy BKN048 59 42.8 55% 29.97 0.0
01 19:55 N 7 10.00 A Few Clouds FEW048 60.8 42.8 52% 29.96 0.0
01 19:35 N 8 10.00 Fair CLR 60.8 42.8 52% 29.94 0.0
01 19:15 N 9 10.00 A Few Clouds FEW050 62.6 44.6 52% 29.94 0.0
01 18:55 N 10 10.00 Partly Cloudy SCT055 62.6 44.6 52% 29.92 0.0
01 18:35 N 7 10.00 Mostly Cloudy BKN055 64.4 46.4 52% 29.92 0.0
01 18:15 N 6 10.00 A Few Clouds FEW060 64.4 44.6 49% 29.92 0.0
01 17:55 N 5 10.00 Fair CLR 64.4 42.8 46% 29.92 0.0
01 17:35 N 8 10.00 Fair CLR 64.4 42.8 46% 29.91 0.0
01 17:15 N 6 10.00 A Few Clouds FEW055 66.2 42.8 43% 29.9 0.0
01 16:55 Vrbl 5 G 14 10.00 Fair CLR 66.2 42.8 43% 29.9 0.0
01 16:35 N 9 10.00 Fair CLR 68 42.8 40% 29.91 0.0
01 16:15 N 7 G 13 10.00 A Few Clouds FEW055 68 42.8 40% 29.92 0.0
01 15:55 Vrbl 6 G 12 10.00 A Few Clouds FEW055 68 42.8 40% 29.93 0.0
01 15:35 Calm 10.00 Fair CLR 66.2 42.8 43% 29.94 0.0
01 15:15 NW 5 10.00 Fair CLR 66.2 42.8 43% 29.95 0.0
01 14:55 NW 5 10.00 Fair CLR 68 44.6 43% 29.95 0.0
01 14:35 W 7 10.00 Fair CLR 66.2 42.8 43% 29.97 0.0
01 14:15 Vrbl 3 10.00 Fair CLR 66.2 42.8 43% 29.97 0.0
01 13:55 Vrbl 6 G 12 10.00 Fair CLR 66.2 41 40% 29.97 0.0
01 13:35 Vrbl 6 10.00 Fair CLR 66.2 42.8 43% 29.97 0.0
01 13:15 N 9 10.00 Fair CLR 66.2 41 40% 29.96 0.0
01 12:55 Vrbl 3 G 15 10.00 Fair CLR 64.4 41 43% 29.97 0.0
01 12:35 N 8 G 14 10.00 Fair CLR 64.4 41 43% 29.98 0.0
01 12:10 Calm 10.00 Fair CLR 62.6 41 45% 29.99 0.0
01 11:55 N 7 10.00 Fair CLR 62.6 42.8 49% 29.99 0.0
01 11:35 N 7 10.00 Fair CLR 62.6 42.8 49% 29.99 0.0
01 11:15 N 6 10.00 Fair CLR 62.6 41 45% 29.99 0.0
01 10:55 N 6 10.00 Fair CLR 62.6 41 45% 30 0.0
01 10:35 Vrbl 6 10.00 Fair CLR 62.6 39.2 42% 30.01 0.0
01 10:15 Vrbl 3 10.00 Fair CLR 60.8 44.6 55% 30 0.0
01 09:55 Calm 10.00 Fair CLR 60.8 46.4 59% 29.99 0.0
01 09:35 Calm 10.00 Fair CLR 59 44.6 59% 29.99 0.0
01 09:15 Calm 10.00 Fair CLR 57.2 48.2 72% 29.99 0.0
01 08:55 Calm 10.00 Fair CLR 55.4 48.2 77% 30 0.0
01 08:35 Calm 10.00 Fair CLR 53.6 48.2 82% 29.99 0.0
01 08:15 Calm 10.00 Fair CLR 53.6 50 88% 29.99 0.0
01 07:55 Calm 10.00 Fair CLR 51.8 51.8 100% 29.98 0.0
01 07:35 Calm 10.00 Fair CLR 50 48.2 94% 29.99 0.0
01 07:15 Calm 10.00 Fair CLR 48.2 48.2 100% 29.98 0.0
01 06:55 Calm 10.00 Fair CLR 48.2 48.2 100% 29.98 0.0
01 06:35 Calm 10.00 Fair CLR 46.4 46.4 100% 29.96 0.0
01 06:15 Calm 10.00 Fair CLR 46.4 46.4 100% 29.95 0.0
01 05:55 Calm 10.00 Fair CLR 46.4 46.4 100% 29.94 0.0
01 05:35 Calm 10.00 Fair CLR 46.4 46.4 100% 29.94 0.0
01 05:10 Calm 10.00 A Few Clouds FEW120 48.2 48.2 100% 29.95 0.0
01 04:55 Calm 10.00 A Few Clouds FEW120 48.2 48.2 100% 29.95 0.0
01 04:35 Calm 10.00 A Few Clouds FEW120 48.2 48.2 100% 29.95 0.0
01 04:15 Calm 10.00 Fair CLR 48.2 48.2 100% 29.95 0.0
01 03:55 Calm 10.00 Fair CLR 48.2 48.2 100% 29.95 0.0
01 03:35 Calm 10.00 Fair CLR 46.4 46.4 100% 29.95 0.0
01 03:15 Calm 10.00 Fair CLR 48.2 48.2 100% 29.95 0.0
01 02:55 Calm 10.00 Fair CLR 48.2 48.2 100% 29.95 0.0
01 02:35 Calm 10.00 Fair CLR 48.2 48.2 100% 29.95 0.0
01 02:15 Calm 10.00 Fair CLR 50 50 100% 29.95 0.0
01 01:55 Calm 10.00 Fair CLR 50 48.2 94% 29.96 0.0
01 01:35 Calm 10.00 Fair CLR 51.8 48.2 88% 29.97 0.0
01 01:15 NE 3 10.00 Fair CLR 51.8 46.4 82% 29.97 0.0
01 00:55 Calm 10.00 Fair CLR 50 50 100% 29.98 0.0
01 00:35 Calm 10.00 Fair CLR 51.8 48.2 88% 29.98 0.0
Date Time (cdt) Wind (mph) Vis. (mi.) Weather Sky Cond. Air Dwpt Max. Min. Relative Humidity Wind Chill (°F) Heat Index (°F) altimeter (in) sea level (mb) 1 hr 3 hr 6 hr
6 hour
Temperature (ºF) Pressure Precipitation (in)